createdAt,value
2022-11-03T00:01:46.988Z,101371.53
2022-11-03T00:04:15.585Z,101370.13
2022-11-03T00:06:43.700Z,101372.03
2022-11-03T00:09:12.008Z,101368.34
2022-11-03T00:11:40.467Z,101368.97
2022-11-03T00:14:09.271Z,101365.56
2022-11-03T00:16:38.450Z,101365.38
2022-11-03T00:19:05.761Z,101351.59
2022-11-03T00:21:32.810Z,101350.16
2022-11-03T00:23:59.501Z,101353.03
2022-11-03T00:26:28.090Z,101352.03
2022-11-03T00:29:00.528Z,101348.47
2022-11-03T00:31:29.617Z,101351.34
2022-11-03T00:33:56.792Z,101349.31
2022-11-03T00:36:28.486Z,101343.75
2022-11-03T00:38:58.020Z,101331.66
2022-11-03T00:41:25.947Z,101342.03
2022-11-03T00:43:53.490Z,101325.97
2022-11-03T00:46:21.701Z,101328.25
2022-11-03T00:48:48.558Z,101326.81
2022-11-03T00:51:14.984Z,101324.75
2022-11-03T00:53:43.749Z,101320.28
2022-11-03T00:56:19.701Z,101305.75
2022-11-03T00:58:46.822Z,101297.06
2022-11-03T01:01:16.261Z,101295.06
2022-11-03T01:04:03.292Z,101288.72
2022-11-03T01:06:49.884Z,101292.06
2022-11-03T01:09:22.431Z,101288.03
2022-11-03T01:12:10.903Z,101284.91
2022-11-03T01:14:47.420Z,101278.22
2022-11-03T01:17:19.301Z,101278.03
2022-11-03T01:19:46.117Z,101275.75
2022-11-03T01:22:14.646Z,101283.09
2022-11-03T01:24:42.119Z,101264.09
2022-11-03T01:27:15.718Z,101273.34
2022-11-03T01:29:42.337Z,101277.41
2022-11-03T01:32:09.398Z,101276.94
2022-11-03T01:34:36.499Z,101260.19
2022-11-03T01:37:03.316Z,101263.03
2022-11-03T01:39:29.796Z,101254.88
2022-11-03T01:41:56.483Z,101255.50
2022-11-03T01:44:22.858Z,101249.19
2022-11-03T01:46:56.094Z,101263.09
2022-11-03T01:49:43.832Z,101250.00
2022-11-03T01:52:19.256Z,101240.63
2022-11-03T01:54:50.675Z,101251.31
2022-11-03T01:57:23.545Z,101234.19
2022-11-03T01:59:50.598Z,101223.91
2022-11-03T02:02:17.423Z,101228.03
2022-11-03T02:04:44.266Z,101220.69
2022-11-03T02:07:21.016Z,101229.72
2022-11-03T02:09:48.089Z,101208.69
2022-11-03T02:12:16.520Z,101215.78
2022-11-03T02:14:53.661Z,101208.22
2022-11-03T02:17:22.034Z,101198.41
2022-11-03T02:20:00.157Z,101197.19
2022-11-03T02:22:52.660Z,101202.13
2022-11-03T02:25:47.261Z,101182.47
2022-11-03T02:28:16.507Z,101181.66
2022-11-03T02:30:52.972Z,101187.03
2022-11-03T02:33:43.735Z,101193.16
2022-11-03T02:36:12.769Z,101196.22
2022-11-03T02:38:46.441Z,101178.66
2022-11-03T02:41:16.406Z,101175.78
2022-11-03T02:43:45.255Z,101176.59
2022-11-03T02:46:14.810Z,101165.72
2022-11-03T02:48:41.316Z,101165.34
2022-11-03T02:51:07.912Z,101150.81
2022-11-03T02:53:47.526Z,101148.78
2022-11-03T02:56:24.809Z,101147.50
2022-11-03T02:59:02.633Z,101143.88
2022-11-03T03:01:47.655Z,101138.78
2022-11-03T03:04:42.058Z,101127.47
2022-11-03T03:07:17.207Z,101124.00
2022-11-03T03:09:50.608Z,101122.56
2022-11-03T03:12:20.375Z,101111.88
2022-11-03T03:14:52.417Z,101121.53
2022-11-03T03:17:33.982Z,101121.69
2022-11-03T03:20:10.606Z,101116.38
2022-11-03T03:22:50.175Z,101111.41
2022-11-03T03:25:41.575Z,101105.09
2022-11-03T03:28:17.126Z,101105.47
2022-11-03T03:30:47.316Z,101101.41
2022-11-03T03:33:16.134Z,101102.22
2022-11-03T03:35:47.586Z,101088.47
2022-11-03T03:38:19.634Z,101084.59
2022-11-03T03:40:51.400Z,101088.97
2022-11-03T03:43:22.816Z,101073.47
2022-11-03T03:45:52.200Z,101080.41
2022-11-03T03:48:19.023Z,101075.56
2022-11-03T03:50:49.191Z,101077.81
2022-11-03T03:53:18.607Z,101070.63
2022-11-03T03:55:50.815Z,101065.94
2022-11-03T03:58:18.297Z,101072.91
2022-11-03T04:00:45.165Z,101059.84
2022-11-03T04:03:24.956Z,101070.28
2022-11-03T04:05:53.751Z,101062.31
2022-11-03T04:08:20.599Z,101052.09
2022-11-03T04:11:06.276Z,101044.16
2022-11-03T04:13:52.088Z,101047.88
2022-11-03T04:16:38.493Z,101038.69
2022-11-03T04:19:23.792Z,101041.13
2022-11-03T04:22:11.619Z,101033.31
2022-11-03T04:24:38.153Z,101032.09
2022-11-03T04:27:24.183Z,101025.19
2022-11-03T04:29:50.861Z,101022.31
2022-11-03T04:32:18.331Z,101015.59
2022-11-03T04:34:48.533Z,101011.91
2022-11-03T04:37:15.792Z,101003.69
2022-11-03T04:42:24.568Z,100992.84
2022-11-03T04:44:52.492Z,100999.63
2022-11-03T04:47:19.005Z,100991.81
2022-11-03T04:49:48.263Z,100993.63
2022-11-03T04:52:19.877Z,100996.50
2022-11-03T04:54:49.515Z,100979.53
2022-11-03T04:57:17.746Z,100976.88
2022-11-03T04:59:49.226Z,100961.56
2022-11-03T05:02:19.374Z,100980.56
2022-11-03T05:04:46.035Z,100962.75
2022-11-03T05:07:23.740Z,100962.16
2022-11-03T05:09:51.344Z,100957.03
2022-11-03T05:12:19.231Z,100954.16
2022-11-03T05:14:45.932Z,100951.50
2022-11-03T05:17:34.618Z,100945.41
2022-11-03T05:20:03.694Z,100944.16
2022-11-03T05:22:36.668Z,100948.06
2022-11-03T05:25:28.676Z,100957.84
2022-11-03T05:27:55.153Z,100940.88
2022-11-03T05:30:21.661Z,100934.53
2022-11-03T05:32:48.257Z,100925.34
2022-11-03T05:35:22.262Z,100923.91
2022-11-03T05:37:50.238Z,100928.19
2022-11-03T05:40:25.441Z,100923.72
2022-11-03T05:43:01.705Z,100928.19
2022-11-03T05:45:33.763Z,100916.94
2022-11-03T05:48:03.634Z,100922.47
2022-11-03T05:50:37.372Z,100911.41
2022-11-03T05:53:14.273Z,100910.81
2022-11-03T05:55:42.690Z,100896.91
2022-11-03T05:58:25.654Z,100895.25
2022-11-03T06:00:57.598Z,100903.44
2022-11-03T06:03:28.123Z,100897.50
2022-11-03T06:05:57.032Z,100904.88
2022-11-03T06:08:33.922Z,100893.44
2022-11-03T06:11:03.169Z,100886.47
2022-11-03T06:13:38.064Z,100879.94
2022-11-03T06:16:06.464Z,100878.91
2022-11-03T06:18:36.591Z,100876.44
2022-11-03T06:21:09.122Z,100865.00
2022-11-03T06:23:36.954Z,100865.22
2022-11-03T06:26:04.434Z,100862.34
2022-11-03T06:28:36.931Z,100859.28
2022-11-03T06:31:15.729Z,100855.38
2022-11-03T06:33:44.241Z,100851.09
2022-11-03T06:36:18.825Z,100852.72
2022-11-03T06:38:52.953Z,100855.38
2022-11-03T06:41:28.028Z,100856.81
2022-11-03T06:43:54.651Z,100866.00
2022-11-03T06:46:26.368Z,100865.38
2022-11-03T06:48:55.378Z,100873.56
2022-11-03T06:51:24.502Z,100866.00
2022-11-03T06:53:53.356Z,100863.56
2022-11-03T06:56:26.277Z,100861.09
2022-11-03T06:58:56.147Z,100855.78
2022-11-03T07:01:41.493Z,100866.44
2022-11-03T07:04:29.843Z,100848.03
2022-11-03T07:07:01.186Z,100854.16
2022-11-03T07:09:27.908Z,100847.59
2022-11-03T07:11:58.387Z,100851.09
2022-11-03T07:14:28.382Z,100833.31
2022-11-03T07:16:57.693Z,100829.63
2022-11-03T07:19:24.219Z,100824.28
2022-11-03T07:21:54.594Z,100819.38
2022-11-03T07:24:27.149Z,100822.06
2022-11-03T07:27:10.636Z,100805.28
2022-11-03T07:29:37.203Z,100815.72
2022-11-03T07:32:14.894Z,100819.41
2022-11-03T07:34:41.779Z,100809.97
2022-11-03T07:37:16.935Z,100812.44
2022-11-03T07:39:43.597Z,100795.28
2022-11-03T07:42:18.406Z,100792.81
2022-11-03T07:44:45.262Z,100793.66
2022-11-03T07:47:19.797Z,100782.19
2022-11-03T07:49:47.445Z,100774.84
2022-11-03T07:52:19.806Z,100769.31
2022-11-03T07:54:46.688Z,100757.63
2022-11-03T07:57:21.031Z,100760.91
2022-11-03T07:59:52.303Z,100751.91
2022-11-03T08:02:57.175Z,100744.75
2022-11-03T08:05:23.679Z,100741.91
2022-11-03T08:07:50.234Z,100729.22
2022-11-03T08:10:16.851Z,100729.84
2022-11-03T08:12:43.543Z,100719.78
2022-11-03T08:15:10.474Z,100718.16
2022-11-03T08:17:36.949Z,100712.22
2022-11-03T08:20:03.557Z,100712.84
2022-11-03T08:22:30.111Z,100710.19
2022-11-03T08:24:56.663Z,100706.88
2022-11-03T08:27:23.172Z,100708.13
2022-11-03T08:29:49.796Z,100701.19
2022-11-03T08:32:16.291Z,100698.50
2022-11-03T08:34:42.798Z,100698.06
2022-11-03T08:37:09.318Z,100695.84
2022-11-03T08:39:36.269Z,100683.34
2022-11-03T08:42:02.957Z,100684.53
2022-11-03T08:44:31.801Z,100682.91
2022-11-03T08:46:58.339Z,100680.22
2022-11-03T08:49:24.816Z,100676.50
2022-11-03T08:51:51.598Z,100666.66
2022-11-03T08:54:18.073Z,100662.72
2022-11-03T08:56:46.625Z,100646.75
2022-11-03T08:59:13.324Z,100650.22
2022-11-03T09:01:39.946Z,100639.16
2022-11-03T09:04:06.596Z,100637.53
2022-11-03T09:06:33.210Z,100638.19
2022-11-03T09:11:47.884Z,100634.88
2022-11-03T09:14:14.797Z,100613.81
2022-11-03T09:16:41.354Z,100618.69
2022-11-03T09:19:07.827Z,100616.41
2022-11-03T09:21:34.383Z,100599.03
2022-11-03T09:24:00.896Z,100593.88
2022-11-03T09:26:27.524Z,100587.47
2022-11-03T09:28:54.058Z,100583.38
2022-11-03T09:31:20.633Z,100581.44
2022-11-03T09:33:47.181Z,100573.84
2022-11-03T09:36:13.706Z,100571.72
2022-11-03T09:38:40.203Z,100567.63
2022-11-03T09:41:18.552Z,100565.34
2022-11-03T09:43:54.140Z,100561.56
2022-11-03T09:46:20.832Z,100566.38
2022-11-03T09:48:47.486Z,100557.38
2022-11-03T09:51:22.021Z,100552.47
2022-11-03T09:53:49.315Z,100559.59
2022-11-03T09:56:19.536Z,100553.19
2022-11-03T09:58:51.270Z,100535.25
2022-11-03T10:01:20.875Z,100551.13
2022-11-03T10:03:47.600Z,100544.16
2022-11-03T10:06:15.509Z,100544.94
2022-11-03T10:08:44.712Z,100550.84
2022-11-03T10:11:12.546Z,100540.84
2022-11-03T10:13:58.808Z,100538.78
2022-11-03T10:16:26.925Z,100533.19
2022-11-03T10:18:54.005Z,100528.78
2022-11-03T10:21:37.027Z,100508.63
2022-11-03T10:24:04.071Z,100516.03
2022-11-03T10:26:46.825Z,100514.81
2022-11-03T10:29:22.289Z,100506.28
2022-11-03T10:31:52.111Z,100504.41
2022-11-03T10:34:32.154Z,100514.63
2022-11-03T10:37:12.636Z,100517.88
2022-11-03T10:39:39.236Z,100504.22
2022-11-03T10:42:05.806Z,100507.03
2022-11-03T10:44:32.394Z,100504.22
2022-11-03T10:47:03.381Z,100487.72
2022-11-03T10:49:39.351Z,100503.44
2022-11-03T10:52:20.726Z,100495.19
2022-11-03T10:54:48.291Z,100486.97
2022-11-03T10:57:15.659Z,100478.53
2022-11-03T10:59:44.900Z,100476.50
2022-11-03T11:02:20.520Z,100466.25
2022-11-03T11:04:56.579Z,100456.00
2022-11-03T11:07:36.508Z,100446.56
2022-11-03T11:10:30.116Z,100426.97
2022-11-03T11:13:22.707Z,100428.31
2022-11-03T11:15:53.543Z,100401.88
2022-11-03T11:18:29.591Z,100364.25
2022-11-03T11:20:57.787Z,100381.09
2022-11-03T11:23:27.234Z,100386.44
2022-11-03T11:26:09.132Z,100429.16
2022-11-03T11:28:35.572Z,100416.28
2022-11-03T11:31:02.317Z,100388.59
2022-11-03T11:33:31.713Z,100386.72
2022-11-03T11:35:59.344Z,100395.31
2022-11-03T11:38:57.663Z,100390.88
2022-11-03T11:42:01.973Z,100377.50
2022-11-03T11:44:43.667Z,100377.06
2022-11-03T11:47:25.147Z,100375.16
2022-11-03T11:50:06.910Z,100369.41
2022-11-03T11:52:42.491Z,100359.25
2022-11-03T11:55:27.326Z,100361.63
2022-11-03T11:57:54.673Z,100349.50
2022-11-03T12:00:26.709Z,100341.84
2022-11-03T12:02:54.118Z,100337.75
2022-11-03T12:05:32.838Z,100325.78
2022-11-03T12:08:00.907Z,100315.50
2022-11-03T12:10:30.735Z,100320.84
2022-11-03T12:12:59.630Z,100323.41
2022-11-03T12:15:55.143Z,100302.63
2022-11-03T12:18:39.989Z,100302.59
2022-11-03T12:21:14.635Z,100293.94
2022-11-03T12:23:46.090Z,100287.47
2022-11-03T12:26:41.427Z,100280.13
2022-11-03T12:29:08.332Z,100277.41
2022-11-03T12:31:37.005Z,100277.75
2022-11-03T12:34:03.748Z,100262.34
2022-11-03T12:36:30.288Z,100258.53
2022-11-03T12:38:56.856Z,100252.53
2022-11-03T12:41:24.781Z,100250.00
2022-11-03T12:43:53.264Z,100256.84
2022-11-03T12:46:21.397Z,100256.84
2022-11-03T12:48:49.101Z,100249.75
2022-11-03T12:51:25.059Z,100236.53
2022-11-03T12:53:52.064Z,100223.44
2022-11-03T12:56:19.158Z,100232.16
2022-11-03T12:58:45.790Z,100226.97
2022-11-03T13:01:12.490Z,100220.47
2022-11-03T13:03:40.303Z,100218.53
2022-11-03T13:06:10.206Z,100211.34
2022-11-03T13:08:38.196Z,100204.75
2022-11-03T13:11:24.965Z,100203.66
2022-11-03T13:13:52.443Z,100206.97
2022-11-03T13:16:19.378Z,100198.22
2022-11-03T13:18:45.947Z,100203.63
2022-11-03T13:21:13.470Z,100203.72
2022-11-03T13:23:41.012Z,100190.97
2022-11-03T13:26:07.570Z,100187.00
2022-11-03T13:28:34.102Z,100169.66
2022-11-03T13:31:00.699Z,100167.88
2022-11-03T13:33:27.247Z,100154.00
2022-11-03T13:35:53.892Z,100145.56
2022-11-03T13:38:21.331Z,100134.13
2022-11-03T13:40:57.015Z,100117.66
2022-11-03T13:43:24.996Z,100140.88
2022-11-03T13:45:53.076Z,100094.50
2022-11-03T13:49:21.498Z,100087.34
2022-11-03T13:51:10.620Z,100111.31
2022-11-03T13:56:24.673Z,100120.28
2022-11-03T14:01:38.823Z,100116.47
2022-11-03T14:06:52.411Z,100100.72
2022-11-03T14:09:18.950Z,100090.41
2022-11-03T14:12:03.904Z,100095.25
2022-11-03T14:14:30.715Z,100090.75
2022-11-03T14:16:58.254Z,100071.97
2022-11-03T14:19:30.942Z,100064.94
2022-11-03T14:22:03.219Z,100058.19
2022-11-03T14:24:29.737Z,100047.06
2022-11-03T14:26:56.241Z,100054.50
2022-11-03T14:29:22.780Z,100035.28
2022-11-03T14:31:49.301Z,100033.88
2022-11-03T14:34:15.794Z,100035.03
2022-11-03T14:36:42.488Z,100025.97
2022-11-03T14:39:09.082Z,100027.03
2022-11-03T14:41:55.836Z,100032.94
2022-11-03T14:44:22.322Z,100015.69
2022-11-03T14:46:49.158Z,100011.56
2022-11-03T14:49:15.667Z,100004.56
2022-11-03T14:51:42.982Z,100005.28
2022-11-03T14:54:09.550Z,99996.94
2022-11-03T14:56:36.042Z,99999.16
2022-11-03T14:59:02.594Z,99984.81
2022-11-03T15:01:29.313Z,99984.34
2022-11-03T15:03:55.890Z,99980.75
2022-11-03T15:06:22.458Z,99974.72
2022-11-03T15:08:55.024Z,99975.78
2022-11-03T15:11:22.853Z,99971.72
2022-11-03T15:13:52.234Z,99974.84
2022-11-03T15:16:19.187Z,99971.06
2022-11-03T15:18:45.720Z,99963.97
2022-11-03T15:21:12.380Z,99967.44
2022-11-03T15:26:25.613Z,99962.88
2022-11-03T15:28:52.214Z,99962.41
2022-11-03T15:31:18.790Z,99957.41
2022-11-03T15:33:45.243Z,99968.44
2022-11-03T15:36:12.202Z,99950.94
2022-11-03T15:38:38.903Z,99956.84
2022-11-03T15:41:18.427Z,99958.00
2022-11-03T15:43:49.121Z,99959.19
2022-11-03T15:46:17.437Z,99956.31
2022-11-03T15:48:44.672Z,99965.03
2022-11-03T15:51:12.199Z,99961.84
2022-11-03T15:53:39.470Z,99960.09
2022-11-03T15:56:06.655Z,99951.38
2022-11-03T15:58:34.485Z,99945.91
2022-11-03T16:01:05.778Z,99940.81
2022-11-03T16:03:32.676Z,99936.16
2022-11-03T16:05:59.320Z,99920.09
2022-11-03T16:08:26.045Z,99926.88
2022-11-03T16:10:57.555Z,99925.63
2022-11-03T16:13:25.472Z,99917.09
2022-11-03T16:15:53.166Z,99930.53
2022-11-03T16:18:19.775Z,99930.16
2022-11-03T16:20:46.407Z,99933.81
2022-11-03T16:23:13.338Z,99927.50
2022-11-03T16:25:39.899Z,99926.53
2022-11-03T16:28:07.130Z,99932.44
2022-11-03T16:30:35.301Z,99930.59
2022-11-03T16:33:01.957Z,99934.88
2022-11-03T16:35:29.669Z,99925.88
2022-11-03T16:37:56.711Z,99921.00
2022-11-03T16:40:23.802Z,99920.78
2022-11-03T16:42:50.450Z,99915.84
2022-11-03T16:45:22.316Z,99912.38
2022-11-03T16:47:50.603Z,99920.34
2022-11-03T16:50:18.577Z,99913.22
2022-11-03T16:52:47.162Z,99910.56
2022-11-03T16:55:15.112Z,99909.97
2022-11-03T16:57:42.082Z,99928.09
2022-11-03T17:00:21.218Z,99911.00
2022-11-03T17:02:48.020Z,99915.47
2022-11-03T17:05:16.704Z,99920.34
2022-11-03T17:07:45.431Z,99923.00
2022-11-03T17:10:15.365Z,99925.25
2022-11-03T17:12:44.172Z,99920.78
2022-11-03T17:15:10.805Z,99920.78
2022-11-03T17:17:37.925Z,99923.66
2022-11-03T17:20:06.266Z,99921.22
2022-11-03T17:22:32.773Z,99923.66
2022-11-03T17:24:59.358Z,99929.56
2022-11-03T17:27:29.171Z,99928.75
2022-11-03T17:30:08.866Z,99926.69
2022-11-03T17:32:37.898Z,99931.78
2022-11-03T17:35:14.212Z,99922.00
2022-11-03T17:37:40.766Z,99931.78
2022-11-03T17:40:16.053Z,99921.38
2022-11-03T17:42:43.210Z,99937.09
2022-11-03T17:45:20.928Z,99944.22
2022-11-03T17:47:47.540Z,99938.31
2022-11-03T17:50:20.386Z,99938.53
2022-11-03T17:52:48.774Z,99934.28
2022-11-03T17:55:23.368Z,99939.34
2022-11-03T17:57:50.233Z,99928.38
2022-11-03T18:00:20.886Z,99940.47
2022-11-03T18:02:49.366Z,99941.53
2022-11-03T18:05:28.574Z,99941.09
2022-11-03T18:07:56.622Z,99941.75
2022-11-03T18:10:28.760Z,99944.84
2022-11-03T18:13:17.961Z,99951.75
2022-11-03T18:15:53.861Z,99955.88
2022-11-03T18:18:23.413Z,99966.50
2022-11-03T18:20:53.583Z,99969.94
2022-11-03T18:23:24.592Z,99979.97
2022-11-03T18:25:51.899Z,99970.16
2022-11-03T18:28:19.573Z,99976.88
2022-11-03T18:30:49.736Z,99984.03
2022-11-03T18:33:29.290Z,99990.16
2022-11-03T18:35:56.302Z,99986.28
2022-11-03T18:38:25.338Z,99985.69
2022-11-03T18:40:52.480Z,99984.28
2022-11-03T18:43:23.935Z,99982.28
2022-11-03T18:45:53.724Z,99990.44
2022-11-03T18:48:20.733Z,99979.47
2022-11-03T18:50:57.082Z,99987.78
2022-11-03T18:53:25.640Z,99990.03
2022-11-03T18:55:54.084Z,99985.13
2022-11-03T18:58:24.410Z,99985.34
2022-11-03T19:00:55.472Z,99999.88
2022-11-03T19:03:23.665Z,100004.13
2022-11-03T19:05:52.777Z,100012.91
2022-11-03T19:08:22.157Z,100001.69
2022-11-03T19:10:49.175Z,100001.69
2022-11-03T19:13:32.828Z,100010.69
2022-11-03T19:16:01.725Z,99995.56
2022-11-03T19:18:32.910Z,100013.94
2022-11-03T19:20:59.484Z,100003.94
2022-11-03T19:23:25.983Z,99999.09
2022-11-03T19:25:58.378Z,100010.94
2022-11-03T19:28:26.060Z,100011.72
2022-11-03T19:30:57.655Z,100014.38
2022-11-03T19:33:26.839Z,100012.78
2022-11-03T19:35:53.513Z,100010.34
2022-11-03T19:38:20.204Z,100013.38
2022-11-03T19:41:05.711Z,100016.03
2022-11-03T19:43:34.840Z,100015.22
2022-11-03T19:46:02.336Z,100023.16
2022-11-03T19:48:33.560Z,100018.13
2022-11-03T19:51:00.200Z,100033.84
2022-11-03T19:53:29.162Z,100043.88
2022-11-03T19:55:56.446Z,100044.09
2022-11-03T19:58:25.902Z,100048.78
2022-11-03T20:00:53.594Z,100051.22
2022-11-03T20:03:20.521Z,100056.28
2022-11-03T20:05:49.951Z,100059.75
2022-11-03T20:08:21.321Z,100049.38
2022-11-03T20:10:49.554Z,100050.25
2022-11-03T20:13:19.291Z,100046.75
2022-11-03T20:15:46.791Z,100060.22
2022-11-03T20:18:14.136Z,100063.09
2022-11-03T20:20:42.282Z,100064.72
2022-11-03T20:23:23.240Z,100062.28
2022-11-03T20:25:50.128Z,100070.88
2022-11-03T20:28:20.693Z,100071.06
2022-11-03T20:30:48.448Z,100070.50
2022-11-03T20:33:16.777Z,100067.03
2022-11-03T20:35:44.481Z,100066.03
2022-11-03T20:38:13.997Z,100065.22
2022-11-03T20:40:41.158Z,100063.41
2022-11-03T20:43:22.737Z,100070.16
2022-11-03T20:45:49.217Z,100080.72
2022-11-03T20:48:16.872Z,100084.38
2022-11-03T20:50:43.399Z,100094.34
2022-11-03T20:53:18.514Z,100106.16
2022-11-03T20:55:45.609Z,100112.69
2022-11-03T20:58:14.364Z,100115.53
2022-11-03T21:00:42.626Z,100107.19
2022-11-03T21:03:53.652Z,100118.78
2022-11-03T21:06:17.537Z,100117.78
2022-11-03T21:08:46.176Z,100120.00
2022-11-03T21:11:29.404Z,100133.66
2022-11-03T21:14:00.173Z,100131.00
2022-11-03T21:16:47.193Z,100137.09
2022-11-03T21:19:38.458Z,100142.59
2022-11-03T21:22:45.814Z,100142.19
2022-11-03T21:25:06.272Z,100132.81
2022-11-03T21:27:33.807Z,100141.78
2022-11-03T21:30:01.532Z,100142.81
2022-11-03T21:32:28.083Z,100148.09
2022-11-03T21:34:54.870Z,100153.38
2022-11-03T21:37:21.345Z,100155.03
2022-11-03T21:39:47.856Z,100150.94
2022-11-03T21:42:34.389Z,100142.38
2022-11-03T21:45:01.341Z,100150.50
2022-11-03T21:47:28.344Z,100159.50
2022-11-03T21:49:54.981Z,100154.41
2022-11-03T21:52:32.230Z,100163.19
2022-11-03T21:55:03.352Z,100167.88
2022-11-03T21:57:30.848Z,100167.66
2022-11-03T22:00:00.438Z,100178.88
2022-11-03T22:02:29.967Z,100179.69
2022-11-03T22:04:57.041Z,100184.78
2022-11-03T22:07:24.057Z,100215.72
2022-11-03T22:09:50.622Z,100240.59
2022-11-03T22:12:17.120Z,100227.03
2022-11-03T22:15:02.089Z,100255.66
2022-11-03T22:17:28.599Z,100243.03
2022-11-03T22:20:13.887Z,100235.88
2022-11-03T22:22:58.754Z,100233.81
2022-11-03T22:25:43.623Z,100232.38
2022-11-03T22:28:14.297Z,100250.91
2022-11-03T22:31:00.314Z,100254.34
2022-11-03T22:33:26.935Z,100253.03
2022-11-03T22:36:21.283Z,100245.69
2022-11-03T22:39:06.860Z,100245.00
2022-11-03T22:41:51.956Z,100251.06
2022-11-03T22:44:37.301Z,100260.94
2022-11-03T22:47:05.665Z,100265.84
2022-11-03T22:49:34.488Z,100265.84
2022-11-03T22:52:00.997Z,100266.44
2022-11-03T22:54:27.497Z,100269.25
2022-11-03T22:56:54.087Z,100265.44
2022-11-03T22:59:20.645Z,100269.06
2022-11-03T23:01:47.268Z,100272.28
2022-11-03T23:04:13.868Z,100274.06
2022-11-03T23:06:43.447Z,100279.75
2022-11-03T23:09:11.350Z,100279.09
2022-11-03T23:11:38.065Z,100279.94
2022-11-03T23:14:07.719Z,100281.00
2022-11-03T23:16:36.761Z,100282.72
2022-11-03T23:19:22.952Z,100286.25
2022-11-03T23:21:51.540Z,100291.81
2022-11-03T23:24:42.135Z,100299.19
2022-11-03T23:27:11.794Z,100314.91
2022-11-03T23:29:38.363Z,100316.16
2022-11-03T23:32:05.307Z,100320.03
2022-11-03T23:34:31.842Z,100313.13
2022-11-03T23:36:58.426Z,100315.22
2022-11-03T23:39:24.924Z,100297.91
2022-11-03T23:41:51.471Z,100299.88
2022-11-03T23:44:18.085Z,100306.97
2022-11-03T23:47:03.879Z,100301.41
2022-11-03T23:49:30.611Z,100310.22
2022-11-03T23:51:57.161Z,100319.34
2022-11-03T23:54:23.812Z,100312.44
2022-11-03T23:57:09.015Z,100316.06
2022-11-03T23:59:35.572Z,100311.47
